createdAt,value
2018-07-04T00:01:32.048Z,12.13
2018-07-04T00:04:08.895Z,11.00
2018-07-04T00:06:42.289Z,10.83
2018-07-04T00:09:15.431Z,11.80
2018-07-04T00:11:48.544Z,10.80
2018-07-04T00:14:23.330Z,10.90
2018-07-04T00:16:56.784Z,10.33
2018-07-04T00:19:30.184Z,10.73
2018-07-04T00:22:03.479Z,10.10
2018-07-04T00:24:37.304Z,10.70
2018-07-04T00:27:10.766Z,11.87
2018-07-04T00:29:43.944Z,11.50
2018-07-04T00:32:17.011Z,11.60
2018-07-04T00:34:53.904Z,12.30
2018-07-04T00:37:27.142Z,12.73
2018-07-04T00:40:00.805Z,12.60
2018-07-04T00:42:33.873Z,12.07
2018-07-04T00:45:08.819Z,11.37
2018-07-04T00:47:43.410Z,12.83
2018-07-04T00:50:18.480Z,12.33
2018-07-04T00:52:51.567Z,12.30
2018-07-04T00:55:26.395Z,12.00
2018-07-04T00:57:59.656Z,11.70
2018-07-04T01:00:32.948Z,12.97
2018-07-04T01:03:06.071Z,12.07
2018-07-04T01:05:40.333Z,13.63
2018-07-04T01:08:13.728Z,13.27
2018-07-04T01:10:47.809Z,12.13
2018-07-04T01:13:20.936Z,12.30
2018-07-04T01:15:54.262Z,13.30
2018-07-04T01:18:27.628Z,13.30
2018-07-04T01:21:06.304Z,12.57
2018-07-04T01:23:39.664Z,13.30
2018-07-04T01:26:12.999Z,14.13
2018-07-04T01:28:48.290Z,13.67
2018-07-04T01:31:22.440Z,12.80
2018-07-04T01:33:55.603Z,14.60
2018-07-04T01:36:28.894Z,12.40
2018-07-04T01:39:02.230Z,13.60
2018-07-04T01:41:35.448Z,14.90
2018-07-04T01:44:08.776Z,13.63
2018-07-04T01:46:42.173Z,13.53
2018-07-04T01:49:15.292Z,13.00
2018-07-04T01:51:48.719Z,13.37
2018-07-04T01:54:21.978Z,13.27
2018-07-04T01:57:17.249Z,14.23
2018-07-04T02:00:13.149Z,14.87
2018-07-04T02:02:46.974Z,13.93
2018-07-04T02:05:20.274Z,14.47
2018-07-04T02:07:53.522Z,13.37
2018-07-04T02:10:26.677Z,13.63
2018-07-04T02:12:59.850Z,12.97
2018-07-04T02:15:33.118Z,13.80
2018-07-04T02:18:06.322Z,13.77
2018-07-04T02:20:39.422Z,14.20
2018-07-04T02:23:12.600Z,12.77
2018-07-04T02:25:45.686Z,13.23
2018-07-04T02:28:18.990Z,12.73
2018-07-04T02:30:52.202Z,13.30
2018-07-04T02:33:25.384Z,12.90
2018-07-04T02:35:58.756Z,12.70
2018-07-04T02:38:31.974Z,13.17
2018-07-04T02:41:04.883Z,12.43
2018-07-04T02:43:38.027Z,12.50
2018-07-04T02:46:11.115Z,13.97
2018-07-04T02:48:44.169Z,12.90
2018-07-04T02:51:17.323Z,12.23
2018-07-04T02:53:50.401Z,14.43
2018-07-04T02:56:23.468Z,12.57
2018-07-04T02:58:56.521Z,12.40
2018-07-04T03:01:29.673Z,12.27
2018-07-04T03:04:02.759Z,12.90
2018-07-04T03:06:35.841Z,12.57
2018-07-04T03:09:08.950Z,12.80
2018-07-04T03:11:42.023Z,12.10
2018-07-04T03:14:15.102Z,14.27
2018-07-04T03:16:48.147Z,13.50
2018-07-04T03:19:21.189Z,13.33
2018-07-04T03:21:54.292Z,13.10
2018-07-04T03:24:27.296Z,12.67
2018-07-04T03:27:00.667Z,12.53
2018-07-04T03:29:33.871Z,12.23
2018-07-04T03:32:06.864Z,13.77
2018-07-04T03:34:39.947Z,12.70
2018-07-04T03:37:13.026Z,14.23
2018-07-04T03:39:46.118Z,12.70
2018-07-04T03:42:19.221Z,13.30
2018-07-04T03:44:52.294Z,13.67
2018-07-04T03:47:25.253Z,14.03
2018-07-04T03:49:58.487Z,13.13
2018-07-04T03:52:31.567Z,14.40
2018-07-04T03:55:04.551Z,12.60
2018-07-04T03:57:37.544Z,12.93
2018-07-04T04:00:10.635Z,13.07
2018-07-04T04:02:43.742Z,13.43
2018-07-04T04:05:16.816Z,13.30
2018-07-04T04:07:49.884Z,13.30
2018-07-04T04:10:22.958Z,13.07
2018-07-04T04:12:55.947Z,13.23
2018-07-04T04:15:29.168Z,13.00
2018-07-04T04:18:02.174Z,12.90
2018-07-04T04:20:35.189Z,13.87
2018-07-04T04:23:08.212Z,13.43
2018-07-04T04:25:41.161Z,12.70
2018-07-04T04:28:14.221Z,14.10
2018-07-04T04:30:47.394Z,13.37
2018-07-04T04:33:20.396Z,13.47
2018-07-04T04:35:53.465Z,14.53
2018-07-04T04:38:26.568Z,14.30
2018-07-04T04:40:59.678Z,15.00
2018-07-04T04:43:32.775Z,14.53
2018-07-04T04:46:05.876Z,15.60
2018-07-04T04:48:38.927Z,15.97
2018-07-04T04:51:11.941Z,14.70
2018-07-04T04:53:44.998Z,14.63
2018-07-04T04:56:18.103Z,15.83
2018-07-04T04:58:51.110Z,16.30
2018-07-04T05:01:24.211Z,15.97
2018-07-04T05:03:57.250Z,16.57
2018-07-04T05:06:30.251Z,16.83
2018-07-04T05:09:03.676Z,15.87
2018-07-04T05:11:36.660Z,15.40
2018-07-04T05:14:10.130Z,15.90
2018-07-04T05:16:43.335Z,16.47
2018-07-04T05:19:16.521Z,16.17
2018-07-04T05:21:49.621Z,14.60
2018-07-04T05:24:22.790Z,14.60
2018-07-04T05:26:55.897Z,13.93
2018-07-04T05:29:28.906Z,14.33
2018-07-04T05:32:01.977Z,14.67
2018-07-04T05:34:34.968Z,14.07
2018-07-04T05:37:08.049Z,15.00
2018-07-04T05:39:41.121Z,14.87
2018-07-04T05:42:14.013Z,14.30
2018-07-04T05:44:47.226Z,14.23
2018-07-04T05:47:20.430Z,15.73
2018-07-04T05:49:53.496Z,16.87
2018-07-04T05:52:26.586Z,15.77
2018-07-04T05:54:59.572Z,14.30
2018-07-04T05:57:32.879Z,15.30
2018-07-04T06:00:06.089Z,14.60
2018-07-04T06:02:39.330Z,15.47
2018-07-04T06:05:12.457Z,16.53
2018-07-04T06:07:45.777Z,15.17
2018-07-04T06:10:19.021Z,14.87
2018-07-04T06:12:52.334Z,14.57
2018-07-04T06:15:25.504Z,14.73
2018-07-04T06:17:58.598Z,14.20
2018-07-04T06:20:31.569Z,14.10
2018-07-04T06:23:05.007Z,13.47
2018-07-04T06:25:38.196Z,13.80
2018-07-04T06:28:11.172Z,14.43
2018-07-04T06:30:44.277Z,14.30
2018-07-04T06:33:17.576Z,13.90
2018-07-04T06:35:50.581Z,14.27
2018-07-04T06:38:17.586Z,14.87
2018-07-04T06:40:44.540Z,15.10
2018-07-04T06:43:11.570Z,13.77
2018-07-04T06:45:38.525Z,12.70
2018-07-04T06:48:05.455Z,12.70
2018-07-04T06:50:32.540Z,11.90
2018-07-04T06:52:59.565Z,11.80
2018-07-04T06:55:26.604Z,13.50
2018-07-04T06:57:53.593Z,13.53
2018-07-04T07:00:20.613Z,12.80
2018-07-04T07:02:47.595Z,13.70
2018-07-04T07:05:20.860Z,11.87
2018-07-04T07:07:54.039Z,13.60
2018-07-04T07:10:27.060Z,12.80
2018-07-04T07:13:00.105Z,12.57
2018-07-04T07:15:33.509Z,12.70
2018-07-04T07:18:06.533Z,12.67
2018-07-04T07:20:39.794Z,13.20
2018-07-04T07:23:12.976Z,12.87
2018-07-04T07:25:46.217Z,12.23
2018-07-04T07:28:19.379Z,11.43
2018-07-04T07:30:52.494Z,12.43
2018-07-04T07:33:25.668Z,13.70
2018-07-04T07:35:59.048Z,12.27
2018-07-04T07:38:32.217Z,12.13
2018-07-04T07:41:05.961Z,11.20
2018-07-04T07:43:39.236Z,10.50
2018-07-04T07:46:12.282Z,11.40
2018-07-04T07:48:45.410Z,12.00
2018-07-04T07:51:18.432Z,11.87
2018-07-04T07:53:51.717Z,11.73
2018-07-04T07:56:24.807Z,10.93
2018-07-04T07:58:57.916Z,9.83
2018-07-04T08:01:30.937Z,11.70
2018-07-04T08:04:03.999Z,11.77
2018-07-04T08:06:37.165Z,11.63
2018-07-04T08:09:10.353Z,11.77
2018-07-04T08:11:43.437Z,10.93
2018-07-04T08:14:16.536Z,11.73
2018-07-04T08:16:49.534Z,11.40
2018-07-04T08:19:22.580Z,10.77
2018-07-04T08:21:55.862Z,10.93
2018-07-04T08:24:29.584Z,9.73
2018-07-04T08:27:02.690Z,10.33
2018-07-04T08:29:35.770Z,11.70
2018-07-04T08:32:08.879Z,10.77
2018-07-04T08:34:42.043Z,11.00
2018-07-04T08:37:15.172Z,11.17
2018-07-04T08:39:48.260Z,10.67
2018-07-04T08:42:21.530Z,9.57
2018-07-04T08:44:54.749Z,9.10
2018-07-04T08:47:27.927Z,10.30
2018-07-04T08:50:01.119Z,9.03
2018-07-04T08:52:34.182Z,8.80
2018-07-04T08:55:07.207Z,9.73
2018-07-04T08:57:40.377Z,10.27
2018-07-04T09:00:13.883Z,9.23
2018-07-04T09:02:47.176Z,8.80
2018-07-04T09:05:20.470Z,8.83
2018-07-04T09:07:53.664Z,9.63
2018-07-04T09:10:26.959Z,9.20
2018-07-04T09:13:00.156Z,8.53
2018-07-04T09:15:33.239Z,7.77
2018-07-04T09:18:06.343Z,8.00
2018-07-04T09:20:39.529Z,7.60
2018-07-04T09:23:12.634Z,8.57
2018-07-04T09:25:45.800Z,7.63
2018-07-04T09:28:18.996Z,8.90
2018-07-04T09:30:52.581Z,7.83
2018-07-04T09:33:25.815Z,8.43
2018-07-04T09:35:59.285Z,8.27
2018-07-04T09:38:32.391Z,7.20
2018-07-04T09:41:05.675Z,8.50
2018-07-04T09:43:38.963Z,8.30
2018-07-04T09:46:12.234Z,8.07
2018-07-04T09:48:45.440Z,6.97
2018-07-04T09:51:18.538Z,8.53
2018-07-04T09:53:51.591Z,8.33
2018-07-04T09:56:24.772Z,7.97
2018-07-04T09:58:58.040Z,6.93
2018-07-04T10:01:31.319Z,7.27
2018-07-04T10:04:04.613Z,6.53
2018-07-04T10:06:37.853Z,6.50
2018-07-04T10:09:11.005Z,6.03
2018-07-04T10:11:44.280Z,6.00
2018-07-04T10:14:17.397Z,5.77
2018-07-04T10:16:50.642Z,5.77
2018-07-04T10:19:23.871Z,5.53
2018-07-04T10:21:57.176Z,5.93
2018-07-04T10:24:30.470Z,6.30
2018-07-04T10:27:03.765Z,6.17
2018-07-04T10:29:37.034Z,5.50
2018-07-04T10:32:10.225Z,5.20
2018-07-04T10:34:43.530Z,5.40
2018-07-04T10:37:16.544Z,5.60
2018-07-04T10:39:49.797Z,5.20
2018-07-04T10:42:23.220Z,5.70
2018-07-04T10:44:56.501Z,4.90
2018-07-04T10:47:29.695Z,6.10
2018-07-04T10:50:02.907Z,5.17
2018-07-04T10:52:36.198Z,4.97
2018-07-04T10:55:09.449Z,5.23
2018-07-04T10:57:42.808Z,5.03
2018-07-04T11:00:16.062Z,5.37
2018-07-04T11:02:49.063Z,4.80
2018-07-04T11:05:22.256Z,4.10
2018-07-04T11:07:55.653Z,4.80
2018-07-04T11:10:28.934Z,5.20
2018-07-04T11:13:01.924Z,4.67
2018-07-04T11:15:35.118Z,5.23
2018-07-04T11:18:08.216Z,4.40
2018-07-04T11:20:41.486Z,4.53
2018-07-04T11:23:14.710Z,5.03
2018-07-04T11:25:47.907Z,5.50
2018-07-04T11:28:21.249Z,5.10
2018-07-04T11:30:54.498Z,4.53
2018-07-04T11:33:27.704Z,4.60
2018-07-04T11:36:01.271Z,5.27
2018-07-04T11:38:34.456Z,5.37
2018-07-04T11:41:07.778Z,4.73
2018-07-04T11:43:41.002Z,4.40
2018-07-04T11:46:09.001Z,4.93
2018-07-04T11:48:35.976Z,4.40
2018-07-04T11:51:03.004Z,4.07
2018-07-04T11:53:29.968Z,4.00
2018-07-04T11:55:57.004Z,3.87
2018-07-04T11:58:24.081Z,4.07
2018-07-04T12:00:51.113Z,4.10
2018-07-04T12:03:20.208Z,4.03
2018-07-04T12:05:53.328Z,4.20
2018-07-04T12:08:20.436Z,4.23
2018-07-04T12:10:47.805Z,3.40
2018-07-04T12:13:14.972Z,4.70
2018-07-04T12:15:41.996Z,4.40
2018-07-04T12:18:08.963Z,4.23
2018-07-04T12:20:35.984Z,3.70
2018-07-04T12:23:03.012Z,3.80
2018-07-04T12:25:29.965Z,3.90
2018-07-04T12:27:57.003Z,4.40
2018-07-04T12:30:23.973Z,3.60
2018-07-04T12:32:50.997Z,4.00
2018-07-04T12:35:17.952Z,3.90
2018-07-04T12:37:45.131Z,3.90
2018-07-04T12:40:12.052Z,3.60
2018-07-04T12:42:39.002Z,4.00
2018-07-04T12:45:05.972Z,4.07
2018-07-04T12:47:32.894Z,4.00
2018-07-04T12:49:59.931Z,3.93
2018-07-04T12:52:26.989Z,3.53
2018-07-04T12:55:00.274Z,3.47
2018-07-04T12:57:33.560Z,4.17
2018-07-04T13:00:06.772Z,4.30
2018-07-04T13:02:39.946Z,4.17
2018-07-04T13:05:12.961Z,3.97
2018-07-04T13:07:45.943Z,4.50
2018-07-04T13:10:19.266Z,3.80
2018-07-04T13:12:52.441Z,3.80
2018-07-04T13:15:25.396Z,4.40
2018-07-04T13:17:58.597Z,4.30
2018-07-04T13:20:31.902Z,3.90
2018-07-04T13:23:04.987Z,3.90
2018-07-04T13:25:37.929Z,3.63
2018-07-04T13:28:11.088Z,3.80
2018-07-04T13:30:44.350Z,3.17
2018-07-04T13:33:17.448Z,4.13
2018-07-04T13:35:50.682Z,4.00
2018-07-04T13:38:24.039Z,4.63
2018-07-04T13:40:57.226Z,3.43
2018-07-04T13:43:30.337Z,4.13
2018-07-04T13:46:03.442Z,3.73
2018-07-04T13:48:36.691Z,3.40
2018-07-04T13:51:09.893Z,3.87
2018-07-04T13:53:42.981Z,3.70
2018-07-04T13:56:16.085Z,4.07
2018-07-04T13:58:49.267Z,3.37
2018-07-04T14:01:22.280Z,3.03
2018-07-04T14:03:55.429Z,4.03
2018-07-04T14:06:28.652Z,3.93
2018-07-04T14:09:01.925Z,4.50
2018-07-04T14:11:34.916Z,3.87
2018-07-04T14:14:07.825Z,3.57
2018-07-04T14:16:41.024Z,4.00
2018-07-04T14:19:14.027Z,4.57
2018-07-04T14:21:47.207Z,3.60
2018-07-04T14:24:20.371Z,3.77
2018-07-04T14:26:53.565Z,3.53
2018-07-04T14:29:26.648Z,3.73
2018-07-04T14:31:59.845Z,4.10
2018-07-04T14:34:33.029Z,3.90
2018-07-04T14:37:05.964Z,4.30
2018-07-04T14:39:39.020Z,4.20
2018-07-04T14:42:12.065Z,4.13
2018-07-04T14:44:45.080Z,3.57
2018-07-04T14:47:18.388Z,3.80
2018-07-04T14:49:51.463Z,3.90
2018-07-04T14:52:24.423Z,3.93
2018-07-04T14:54:57.603Z,3.23
2018-07-04T14:57:31.035Z,4.77
2018-07-04T15:00:04.277Z,3.30
2018-07-04T15:02:37.542Z,3.20
2018-07-04T15:05:10.717Z,3.83
2018-07-04T15:07:43.716Z,4.20
2018-07-04T15:10:16.896Z,3.70
2018-07-04T15:12:50.011Z,3.80
2018-07-04T15:15:22.977Z,3.53
2018-07-04T15:17:56.063Z,4.80
2018-07-04T15:20:29.981Z,3.63
2018-07-04T15:23:03.023Z,3.47
2018-07-04T15:25:36.178Z,3.47
2018-07-04T15:28:09.568Z,3.23
2018-07-04T15:30:42.781Z,3.20
2018-07-04T15:33:15.975Z,3.40
2018-07-04T15:35:49.173Z,4.03
2018-07-04T15:38:22.534Z,3.60
2018-07-04T15:40:55.479Z,3.87
2018-07-04T15:43:28.716Z,3.90
2018-07-04T15:46:02.013Z,3.57
2018-07-04T15:48:35.216Z,3.40
2018-07-04T15:51:08.405Z,3.30
2018-07-04T15:53:41.576Z,3.77
2018-07-04T15:56:14.875Z,3.83
2018-07-04T15:58:48.080Z,3.20
2018-07-04T16:01:21.364Z,3.67
2018-07-04T16:03:54.445Z,3.50
2018-07-04T16:06:27.663Z,3.70
2018-07-04T16:09:01.093Z,3.83
2018-07-04T16:11:34.262Z,3.43
2018-07-04T16:14:07.192Z,3.60
2018-07-04T16:16:40.341Z,4.03
2018-07-04T16:19:13.607Z,4.20
2018-07-04T16:21:46.824Z,4.93
2018-07-04T16:24:19.984Z,4.47
2018-07-04T16:26:53.126Z,4.53
2018-07-04T16:29:26.356Z,4.80
2018-07-04T16:31:59.473Z,5.43
2018-07-04T16:34:32.653Z,5.57
2018-07-04T16:37:05.864Z,5.17
2018-07-04T16:39:39.150Z,5.20
2018-07-04T16:42:12.568Z,4.87
2018-07-04T16:44:45.943Z,5.43
2018-07-04T16:47:19.016Z,4.73
2018-07-04T16:49:52.244Z,5.60
2018-07-04T16:52:25.616Z,5.60
2018-07-04T16:54:58.738Z,5.17
2018-07-04T16:57:31.733Z,5.47
2018-07-04T17:00:04.748Z,4.97
2018-07-04T17:02:37.915Z,5.23
2018-07-04T17:05:11.120Z,6.07
2018-07-04T17:07:44.373Z,5.47
2018-07-04T17:10:17.481Z,5.10
2018-07-04T17:12:50.732Z,5.40
2018-07-04T17:15:23.954Z,6.10
2018-07-04T17:17:57.245Z,5.60
2018-07-04T17:20:30.536Z,6.17
2018-07-04T17:23:03.821Z,5.47
2018-07-04T17:25:37.037Z,5.63
2018-07-04T17:28:10.240Z,5.70
2018-07-04T17:30:43.409Z,5.90
2018-07-04T17:33:16.392Z,6.07
2018-07-04T17:35:49.473Z,6.57
2018-07-04T17:38:22.557Z,6.77
2018-07-04T17:40:55.777Z,6.30
2018-07-04T17:43:29.080Z,7.17
2018-07-04T17:46:03.349Z,6.90
2018-07-04T17:48:36.466Z,6.93
2018-07-04T17:51:09.621Z,7.10
2018-07-04T17:53:42.741Z,7.40
2018-07-04T17:56:15.777Z,6.97
2018-07-04T17:58:48.916Z,7.43
2018-07-04T18:01:21.958Z,6.70
2018-07-04T18:03:55.220Z,7.47
2018-07-04T18:06:28.437Z,7.57
2018-07-04T18:09:01.686Z,7.20
2018-07-04T18:11:35.877Z,6.93
2018-07-04T18:17:10.889Z,7.20
2018-07-04T18:20:05.997Z,7.43
2018-07-04T18:22:39.206Z,7.70
2018-07-04T18:25:12.445Z,7.77
2018-07-04T18:27:45.761Z,7.80
2018-07-04T18:30:18.935Z,8.50
2018-07-04T18:32:52.044Z,8.33
2018-07-04T18:35:25.230Z,8.20
2018-07-04T18:37:58.524Z,8.17
2018-07-04T18:40:31.750Z,12.77
2018-07-04T18:43:04.928Z,15.70
2018-07-04T18:45:38.336Z,14.33
2018-07-04T18:48:11.536Z,12.27
2018-07-04T18:50:44.773Z,10.17
2018-07-04T18:53:18.017Z,10.10
2018-07-04T18:55:51.319Z,9.80
2018-07-04T18:58:24.573Z,8.57
2018-07-04T19:00:57.888Z,8.27
2018-07-04T19:03:31.183Z,9.13
2018-07-04T19:06:04.561Z,8.40
2018-07-04T19:08:37.740Z,8.43
2018-07-04T19:11:10.763Z,9.00
2018-07-04T19:13:43.960Z,8.40
2018-07-04T19:16:17.173Z,8.73
2018-07-04T19:18:50.467Z,8.50
2018-07-04T19:21:23.609Z,8.73
2018-07-04T19:23:58.639Z,8.90
2018-07-04T19:26:31.912Z,8.90
2018-07-04T19:29:05.181Z,8.37
2018-07-04T19:31:38.450Z,9.70
2018-07-04T19:34:11.658Z,9.53
2018-07-04T19:36:44.671Z,8.50
2018-07-04T19:39:17.806Z,9.37
2018-07-04T19:41:51.219Z,8.47
2018-07-04T19:44:24.329Z,9.10
2018-07-04T19:46:57.603Z,9.27
2018-07-04T19:49:30.735Z,9.17
2018-07-04T19:52:04.008Z,9.50
2018-07-04T19:54:37.282Z,9.07
2018-07-04T19:57:10.621Z,9.20
2018-07-04T19:59:43.930Z,9.63
2018-07-04T20:02:17.168Z,9.80
2018-07-04T20:04:50.467Z,10.83
2018-07-04T20:07:23.827Z,10.60
2018-07-04T20:09:57.050Z,10.40
2018-07-04T20:12:30.353Z,11.10
2018-07-04T20:15:03.638Z,10.70
2018-07-04T20:17:36.694Z,9.40
2018-07-04T20:20:09.938Z,10.80
2018-07-04T20:22:43.292Z,9.83
2018-07-04T20:25:16.810Z,9.77
2018-07-04T20:27:49.858Z,11.07
2018-07-04T20:30:22.978Z,10.20
2018-07-04T20:32:56.017Z,11.63
2018-07-04T20:35:29.396Z,11.87
2018-07-04T20:38:02.627Z,11.47
2018-07-04T20:40:35.976Z,10.60
2018-07-04T20:43:08.964Z,10.70
2018-07-04T20:45:42.095Z,11.27
2018-07-04T20:48:15.452Z,10.80
2018-07-04T20:50:48.667Z,10.43
2018-07-04T20:53:22.024Z,10.60
2018-07-04T20:55:55.442Z,10.63
2018-07-04T20:58:28.631Z,9.47
2018-07-04T21:01:01.934Z,9.30
2018-07-04T21:03:35.221Z,10.30
2018-07-04T21:06:08.838Z,10.10
2018-07-04T21:08:42.008Z,9.63
2018-07-04T21:11:16.834Z,10.10
2018-07-04T21:13:50.144Z,11.13
2018-07-04T21:16:23.509Z,10.30
2018-07-04T21:18:56.622Z,10.00
2018-07-04T21:21:29.868Z,9.00
2018-07-04T21:24:03.134Z,9.03
2018-07-04T21:26:36.324Z,8.50
2018-07-04T21:29:09.488Z,8.97
2018-07-04T21:31:42.579Z,8.50
2018-07-04T21:34:15.825Z,9.00
2018-07-04T21:36:48.999Z,9.57
2018-07-04T21:39:22.258Z,9.27
2018-07-04T21:41:55.554Z,8.87
2018-07-04T21:44:28.845Z,9.20
2018-07-04T21:47:02.152Z,9.43
2018-07-04T21:49:35.660Z,9.70
2018-07-04T21:52:08.937Z,9.13
2018-07-04T21:54:42.022Z,10.00
2018-07-04T21:57:15.157Z,9.80
2018-07-04T21:59:48.443Z,10.53
2018-07-04T22:02:21.666Z,9.60
2018-07-04T22:04:54.861Z,8.93
2018-07-04T22:07:27.956Z,9.40
2018-07-04T22:10:01.017Z,9.80
2018-07-04T22:12:34.089Z,10.07
2018-07-04T22:15:07.235Z,9.83
2018-07-04T22:17:40.560Z,9.33
2018-07-04T22:20:13.723Z,9.30
2018-07-04T22:22:46.919Z,11.17
2018-07-04T22:25:20.456Z,8.83
2018-07-04T22:27:53.488Z,9.63
2018-07-04T22:30:26.604Z,10.07
2018-07-04T22:32:59.901Z,10.33
2018-07-04T22:35:33.103Z,9.77
2018-07-04T22:38:06.473Z,9.30
2018-07-04T22:40:39.782Z,10.60
2018-07-04T22:43:12.871Z,9.50
2018-07-04T22:45:46.061Z,9.67
2018-07-04T22:48:19.250Z,9.27
2018-07-04T22:50:52.533Z,9.33
2018-07-04T22:53:25.771Z,9.00
2018-07-04T22:55:59.334Z,9.67
2018-07-04T22:58:32.531Z,8.60
2018-07-04T23:01:05.918Z,10.50
2018-07-04T23:03:39.136Z,10.37
2018-07-04T23:06:12.143Z,9.50
2018-07-04T23:08:45.308Z,9.47
2018-07-04T23:11:18.585Z,9.30
2018-07-04T23:13:51.858Z,9.10
2018-07-04T23:16:24.875Z,8.97
2018-07-04T23:18:58.192Z,9.87
2018-07-04T23:21:31.449Z,8.80
2018-07-04T23:24:04.717Z,9.70
2018-07-04T23:26:37.967Z,10.37
2018-07-04T23:29:11.157Z,9.70
2018-07-04T23:31:44.254Z,10.07
2018-07-04T23:34:17.542Z,10.63
2018-07-04T23:36:50.918Z,10.07
2018-07-04T23:39:24.258Z,10.60
2018-07-04T23:41:57.601Z,9.60
2018-07-04T23:44:30.878Z,9.30
2018-07-04T23:47:03.860Z,9.80
2018-07-04T23:49:39.746Z,10.23
2018-07-04T23:52:12.968Z,10.03
2018-07-04T23:54:46.244Z,10.67
2018-07-04T23:57:19.544Z,10.33
2018-07-04T23:59:52.733Z,11.03
